MUC | München Airways

*** AEROSOFT GUTSCHEIN-KONZEPT AB 01.09.2017 GÜLTIG ***
EDDM 250520Z 00000KT 4000 1200E R08L/0375V0700N R08R/1000VP2000U PRFG FEW004 03/03 Q1021 TEMPO 2500
Abflüge
Zeit Nach Flug-Nr.
12:00 Dubai MUC414
18:40 Djerba Zarzis MUC249
Alle Abflüge →
48
Piloten
66
Flugzeuge
457
Routen
5042
Stunden Total
2908
Flüge Total
253
Charter Flüge

 LIVE MAP


DEPARTURES | ARRIVALS

Flug-Nr. ETD From To Status Gate (EDDM) In Progress
MUC414 04:30 Munich Dubai CRUISE (MUC058) 107 ON TIME
MUC249 11:10 Munich Djerba Zarzis BOOKED (MUC070) 151
MUC224 04:30 Palma De Mallorca Munich LANDED (MUC058) 152

 = München Airways   = München AirRegional   = München AirCargo

Weltweite Ziele

Wir fliegen sowohl kontinentale- als auch interkontinentale Ziele an

Flotte

München Airways ist mit einer der modernsten Flotten weltweit unterwegs

Real ATC

Wir fliegen auf dem Online-Netzwerk "IVAO". Nach Standardphrasen der DFS fliegen wir problemlos durch verschiedenste Lufträume

Soziales

Bei unserer Airline ist sowohl der Spass als auch die Beziehung zwischen den Piloten sehr wertvoll

Reale Flugrouten

Alle Routen werden von uns geprüft und täglich aktualisiert. Sommer- sowie Winterflugpläne bringen euch viel Abwechslung

Teamspeak 3

Mittels des Teamspeak 3 Servers können die Piloten zusammen fliegen oder sich gegenseitig austauschen

 LIVEBOARD

 KOMMENDE EVENTS

EventDatum

 NOTAMS

NOTAMDatum